Portada
METAR-TAF:

METAR-TAF

Aeroports :

Shillong, Índia

latitud: 25-42-13N, longitud: 091-58-43E, altitud: 887 m

Observació

L'informe es va fer fa 17 hores i 50 minuts, a les 08:30 UTC
Vent 3 kt del Est/Sud-Est
Temperatura 25°C
Humitat 61%
Pressió 1017 hPa
Visibilitat: 7000 m
Núvols disperses a una alçada de 2000 ft

METAR: VEBI 130830Z 12003KT 7000 SCT020 25/17 Q1017

Hora: 07:50 (02:20 UTC)

Pronòstic

L'informe es va fer fa 3 hores i 20 minuts, a les 23:00 UTC
Pronòstic vàlid del 14 a les 00 UTC al 14 a les 09 UTC
Vent kt del Nord
Visibilitat: 0800 m
Escasses núvols a una alçada de 1000 ft
Núvols disperses a una alçada de 1500 ft
boira
Evolucionant progressivament
l' 14 a les 03 UTC al 14 a les 05 UTC
Vent 3 kt del Est
Visibilitat: 6000 m
Escasses núvols a una alçada de 10000 ft

TAF: VEBI 132300Z 1400/1409 00000KT 0800 FG FEW010 SCT015 BECMG 1403/1405 09003KT 6000 FEW100

Observacions i pronòstics meteorològics de més de 4000 aeroports (METAR i TAF).

Les estacions disponibles són els punts grocs i vermells al mapa.

Posi el ratolí al punt desitjat per veure el nom de l'estació.

Feu clic per veure les observacions i els pronòstics meteorològics.

Per canviar el mapa: feu clic els botons verds amb una creu de color negre per apropar; al botó verd amb un guió per allunyar la imatge; o en les fletxes verdes per a mapes adjacents.


METAR-TAF: